sensor_id;sensor_type;location;lat;lon;timestamp;pressure;altitude;pressure_sealevel;temperature;humidity
75794;BME280;64418;47.536;19.074;2022-11-06T00:00:00;100353.19;;;9.00;100.00
75794;BME280;64418;47.536;19.074;2022-11-06T00:02:29;100353.84;;;9.02;100.00
75794;BME280;64418;47.536;19.074;2022-11-06T00:04:54;100360.28;;;9.01;100.00
75794;BME280;64418;47.536;19.074;2022-11-06T00:07:20;100354.88;;;9.01;100.00
75794;BME280;64418;47.536;19.074;2022-11-06T00:09:46;100365.50;;;9.02;100.00
75794;BME280;64418;47.536;19.074;2022-11-06T00:12:11;100364.00;;;9.00;100.00
75794;BME280;64418;47.536;19.074;2022-11-06T00:14:37;100361.12;;;9.01;100.00
75794;BME280;64418;47.536;19.074;2022-11-06T00:17:03;100356.94;;;8.99;100.00
75794;BME280;64418;47.536;19.074;2022-11-06T00:19:30;100369.41;;;9.00;100.00
75794;BME280;64418;47.536;19.074;2022-11-06T00:21:56;100366.94;;;8.98;100.00
75794;BME280;64418;47.536;19.074;2022-11-06T00:24:22;100374.38;;;8.96;100.00
75794;BME280;64418;47.536;19.074;2022-11-06T00:26:47;100371.88;;;8.95;100.00
75794;BME280;64418;47.536;19.074;2022-11-06T00:29:16;100368.97;;;8.96;100.00
75794;BME280;64418;47.536;19.074;2022-11-06T00:31:42;100366.50;;;8.95;100.00
75794;BME280;64418;47.536;19.074;2022-11-06T00:34:08;100365.25;;;8.97;100.00
75794;BME280;64418;47.536;19.074;2022-11-06T00:36:35;100362.53;;;8.97;100.00
75794;BME280;64418;47.536;19.074;2022-11-06T00:39:01;100370.66;;;8.97;100.00
75794;BME280;64418;47.536;19.074;2022-11-06T00:41:27;100366.09;;;8.98;100.00
75794;BME280;64418;47.536;19.074;2022-11-06T00:43:55;100367.75;;;8.99;100.00
75794;BME280;64418;47.536;19.074;2022-11-06T00:46:21;100360.69;;;8.98;100.00
75794;BME280;64418;47.536;19.074;2022-11-06T00:48:47;100370.44;;;8.99;100.00
75794;BME280;64418;47.536;19.074;2022-11-06T00:51:16;100367.75;;;8.99;100.00
75794;BME280;64418;47.536;19.074;2022-11-06T00:53:44;100369.81;;;8.97;100.00
75794;BME280;64418;47.536;19.074;2022-11-06T00:56:11;100373.34;;;8.97;100.00
75794;BME280;64418;47.536;19.074;2022-11-06T00:58:37;100361.88;;;8.95;100.00
75794;BME280;64418;47.536;19.074;2022-11-06T01:01:08;100364.41;;;8.97;100.00
75794;BME280;64418;47.536;19.074;2022-11-06T01:03:34;100361.72;;;8.97;100.00
75794;BME280;64418;47.536;19.074;2022-11-06T01:06:05;100370.84;;;8.96;100.00
75794;BME280;64418;47.536;19.074;2022-11-06T01:08:31;100367.13;;;8.97;100.00
75794;BME280;64418;47.536;19.074;2022-11-06T01:11:04;100367.13;;;8.97;100.00
75794;BME280;64418;47.536;19.074;2022-11-06T01:13:30;100370.66;;;8.97;100.00
75794;BME280;64418;47.536;19.074;2022-11-06T01:15:56;100380.63;;;8.97;100.00
75794;BME280;64418;47.536;19.074;2022-11-06T01:18:22;100376.69;;;8.99;100.00
75794;BME280;64418;47.536;19.074;2022-11-06T01:20:48;100376.69;;;8.99;100.00
75794;BME280;64418;47.536;19.074;2022-11-06T01:23:14;100380.63;;;8.97;100.00
75794;BME280;64418;47.536;19.074;2022-11-06T01:25:39;100376.69;;;8.99;100.00
75794;BME280;64418;47.536;19.074;2022-11-06T01:28:06;100379.59;;;8.98;100.00
75794;BME280;64418;47.536;19.074;2022-11-06T01:30:35;100381.47;;;8.97;100.00
75794;BME280;64418;47.536;19.074;2022-11-06T01:33:03;100380.44;;;8.98;100.00
75794;BME280;64418;47.536;19.074;2022-11-06T01:35:29;100378.53;;;8.99;100.00
75794;BME280;64418;47.536;19.074;2022-11-06T01:37:54;100377.91;;;8.97;100.00
75794;BME280;64418;47.536;19.074;2022-11-06T01:40:20;100375.22;;;8.97;100.00
75794;BME280;64418;47.536;19.074;2022-11-06T01:42:45;100376.91;;;8.98;100.00
75794;BME280;64418;47.536;19.074;2022-11-06T01:45:28;100376.91;;;8.98;100.00
75794;BME280;64418;47.536;19.074;2022-11-06T01:47:56;100374.19;;;8.98;100.00
75794;BME280;64418;47.536;19.074;2022-11-06T01:50:22;100376.91;;;8.98;100.00
75794;BME280;64418;47.536;19.074;2022-11-06T01:52:49;100373.13;;;8.99;100.00
75794;BME280;64418;47.536;19.074;2022-11-06T01:55:20;100372.34;;;8.98;100.00
75794;BME280;64418;47.536;19.074;2022-11-06T01:57:47;100377.53;;;9.00;100.00
75794;BME280;64418;47.536;19.074;2022-11-06T02:00:13;100378.75;;;8.97;100.00
75794;BME280;64418;47.536;19.074;2022-11-06T02:02:40;100385.63;;;9.00;100.00
75794;BME280;64418;47.536;19.074;2022-11-06T02:05:07;100381.25;;;8.99;100.00
75794;BME280;64418;47.536;19.074;2022-11-06T02:07:33;100385.63;;;9.00;100.00
75794;BME280;64418;47.536;19.074;2022-11-06T02:09:59;100382.31;;;8.98;100.00
75794;BME280;64418;47.536;19.074;2022-11-06T02:12:34;100381.25;;;8.99;100.00
75794;BME280;64418;47.536;19.074;2022-11-06T02:15:14;100385.84;;;8.98;100.00
75794;BME280;64418;47.536;19.074;2022-11-06T02:17:54;100387.72;;;8.98;100.00
75794;BME280;64418;47.536;19.074;2022-11-06T02:20:27;100389.56;;;8.97;100.00
75794;BME280;64418;47.536;19.074;2022-11-06T02:23:21;100390.81;;;8.95;100.00
75794;BME280;64418;47.536;19.074;2022-11-06T02:25:53;100386.22;;;8.95;100.00
75794;BME280;64418;47.536;19.074;2022-11-06T02:28:30;100388.91;;;8.95;100.00
75794;BME280;64418;47.536;19.074;2022-11-06T02:31:02;100389.75;;;8.96;100.00
75794;BME280;64418;47.536;19.074;2022-11-06T02:33:33;100396.00;;;8.96;100.00
75794;BME280;64418;47.536;19.074;2022-11-06T02:36:02;100399.72;;;8.95;100.00
75794;BME280;64418;47.536;19.074;2022-11-06T02:38:33;100398.25;;;8.93;100.00
75794;BME280;64418;47.536;19.074;2022-11-06T02:41:04;100395.56;;;8.93;100.00
75794;BME280;64418;47.536;19.074;2022-11-06T02:43:38;100404.31;;;8.95;100.00
75794;BME280;64418;47.536;19.074;2022-11-06T02:46:11;100411.38;;;8.96;100.00
75794;BME280;64418;47.536;19.074;2022-11-06T02:48:41;100409.72;;;8.95;100.00
75794;BME280;64418;47.536;19.074;2022-11-06T02:51:12;100415.94;;;8.95;100.00
75794;BME280;64418;47.536;19.074;2022-11-06T02:53:43;100416.59;;;9.25;100.00
75794;BME280;64418;47.536;19.074;2022-11-06T02:56:11;100418.25;;;8.98;100.00
75794;BME280;64418;47.536;19.074;2022-11-06T02:58:43;100418.44;;;8.97;100.00
75794;BME280;64418;47.536;19.074;2022-11-06T03:01:14;100422.16;;;8.96;100.00
75794;BME280;64418;47.536;19.074;2022-11-06T03:03:45;100411.38;;;8.96;100.00
75794;BME280;64418;47.536;19.074;2022-11-06T03:06:19;100423.00;;;8.96;100.00
75794;BME280;64418;47.536;19.074;2022-11-06T03:08:50;100419.69;;;8.94;100.00
75794;BME280;64418;47.536;19.074;2022-11-06T03:11:21;100420.31;;;8.96;100.00
75794;BME280;64418;47.536;19.074;2022-11-06T03:13:53;100416.78;;;8.96;100.00
75794;BME280;64418;47.536;19.074;2022-11-06T03:16:27;100423.00;;;8.96;100.00
75794;BME280;64418;47.536;19.074;2022-11-06T03:18:59;100435.50;;;8.97;100.00
75794;BME280;64418;47.536;19.074;2022-11-06T03:21:30;100432.97;;;8.96;100.00
75794;BME280;64418;47.536;19.074;2022-11-06T03:24:00;100437.19;;;8.98;100.00
75794;BME280;64418;47.536;19.074;2022-11-06T03:26:32;100435.50;;;8.97;100.00
75794;BME280;64418;47.536;19.074;2022-11-06T03:29:08;100440.06;;;8.97;100.00
75794;BME280;64418;47.536;19.074;2022-11-06T03:31:39;100446.31;;;8.97;100.00
75794;BME280;64418;47.536;19.074;2022-11-06T03:34:10;100444.63;;;8.96;100.00
75794;BME280;64418;47.536;19.074;2022-11-06T03:36:41;100456.28;;;8.97;100.00
75794;BME280;64418;47.536;19.074;2022-11-06T03:39:14;100457.28;;;8.96;100.00
75794;BME280;64418;47.536;19.074;2022-11-06T03:41:44;100451.72;;;8.97;100.00
75794;BME280;64418;47.536;19.074;2022-11-06T03:44:16;100461.69;;;8.97;100.00
75794;BME280;64418;47.536;19.074;2022-11-06T03:46:46;100467.91;;;8.97;100.00
75794;BME280;64418;47.536;19.074;2022-11-06T03:49:17;100466.06;;;8.98;100.00
75794;BME280;64418;47.536;19.074;2022-11-06T03:51:46;100454.19;;;8.99;100.00
75794;BME280;64418;47.536;19.074;2022-11-06T03:54:17;100458.78;;;8.98;100.00
75794;BME280;64418;47.536;19.074;2022-11-06T03:56:49;100451.72;;;8.97;100.00
75794;BME280;64418;47.536;19.074;2022-11-06T03:59:17;100456.28;;;8.97;100.00
75794;BME280;64418;47.536;19.074;2022-11-06T04:01:45;100467.72;;;8.99;100.00
75794;BME280;64418;47.536;19.074;2022-11-06T04:04:18;100467.72;;;8.99;100.00
75794;BME280;64418;47.536;19.074;2022-11-06T04:06:50;100472.31;;;8.98;100.00
75794;BME280;64418;47.536;19.074;2022-11-06T04:09:18;100473.12;;;8.99;100.00
75794;BME280;64418;47.536;19.074;2022-11-06T04:11:47;100467.09;;;8.97;100.00
75794;BME280;64418;47.536;19.074;2022-11-06T04:14:14;100469.78;;;8.97;100.00
75794;BME280;64418;47.536;19.074;2022-11-06T04:16:45;100467.09;;;8.97;100.00
75794;BME280;64418;47.536;19.074;2022-11-06T04:19:14;100474.34;;;8.96;100.00
75794;BME280;64418;47.536;19.074;2022-11-06T04:21:52;100469.16;;;8.95;100.00
75794;BME280;64418;47.536;19.074;2022-11-06T04:24:27;100469.97;;;8.95;100.00
75794;BME280;64418;47.536;19.074;2022-11-06T04:27:12;100469.16;;;8.95;100.00
75794;BME280;64418;47.536;19.074;2022-11-06T04:29:54;100472.66;;;8.95;100.00
75794;BME280;64418;47.536;19.074;2022-11-06T04:32:34;100478.28;;;8.94;100.00
75794;BME280;64418;47.536;19.074;2022-11-06T04:35:09;100471.19;;;8.93;100.00
75794;BME280;64418;47.536;19.074;2022-11-06T04:37:43;100473.91;;;8.93;100.00
75794;BME280;64418;47.536;19.074;2022-11-06T04:40:14;100471.19;;;8.93;100.00
75794;BME280;64418;47.536;19.074;2022-11-06T04:42:47;100469.50;;;8.92;100.00
75794;BME280;64418;47.536;19.074;2022-11-06T04:45:21;100467.87;;;8.91;100.00
75794;BME280;64418;47.536;19.074;2022-11-06T04:47:50;100469.91;;;8.89;100.00
75794;BME280;64418;47.536;19.074;2022-11-06T04:50:17;100466.59;;;8.87;100.00
75794;BME280;64418;47.536;19.074;2022-11-06T04:52:46;100478.22;;;8.87;100.00
75794;BME280;64418;47.536;19.074;2022-11-06T04:55:12;100477.37;;;8.87;100.00
75794;BME280;64418;47.536;19.074;2022-11-06T04:57:38;100468.00;;;8.83;100.00
75794;BME280;64418;47.536;19.074;2022-11-06T05:00:11;100470.03;;;8.81;100.00
75794;BME280;64418;47.536;19.074;2022-11-06T05:02:37;100467.34;;;8.81;100.00
75794;BME280;64418;47.536;19.074;2022-11-06T05:05:05;100471.09;;;8.80;100.00
75794;BME280;64418;47.536;19.074;2022-11-06T05:07:31;100477.50;;;8.79;100.00
75794;BME280;64418;47.536;19.074;2022-11-06T05:09:57;100483.94;;;8.78;100.00
75794;BME280;64418;47.536;19.074;2022-11-06T05:12:23;100477.69;;;8.77;100.00
75794;BME280;64418;47.536;19.074;2022-11-06T05:14:48;100479.94;;;8.74;100.00
75794;BME280;64418;47.536;19.074;2022-11-06T05:17:14;100482.62;;;8.74;100.00
75794;BME280;64418;47.536;19.074;2022-11-06T05:19:39;100482.47;;;8.75;100.00
75794;BME280;64418;47.536;19.074;2022-11-06T05:22:07;100477.25;;;8.74;100.00
75794;BME280;64418;47.536;19.074;2022-11-06T05:24:34;100484.16;;;8.76;100.00
75794;BME280;64418;47.536;19.074;2022-11-06T05:26:59;100475.19;;;8.76;100.00
75794;BME280;64418;47.536;19.074;2022-11-06T05:29:25;100491.41;;;8.76;100.00
75794;BME280;64418;47.536;19.074;2022-11-06T05:31:50;100493.06;;;8.77;100.00
75794;BME280;64418;47.536;19.074;2022-11-06T05:34:16;100497.44;;;8.78;100.00
75794;BME280;64418;47.536;19.074;2022-11-06T05:36:42;100507.22;;;8.79;100.00
75794;BME280;64418;47.536;19.074;2022-11-06T05:39:09;100500.97;;;8.78;100.00
75794;BME280;64418;47.536;19.074;2022-11-06T05:41:35;100501.81;;;8.79;100.00
75794;BME280;64418;47.536;19.074;2022-11-06T05:44:00;100502.84;;;8.78;100.00
75794;BME280;64418;47.536;19.074;2022-11-06T05:46:26;100510.50;;;8.74;100.00
75794;BME280;64418;47.536;19.074;2022-11-06T05:48:52;100513.66;;;8.78;100.00
75794;BME280;64418;47.536;19.074;2022-11-06T05:51:18;100511.16;;;8.76;100.00
75794;BME280;64418;47.536;19.074;2022-11-06T05:53:43;100516.06;;;8.73;100.00
75794;BME280;64418;47.536;19.074;2022-11-06T05:56:10;100515.06;;;8.74;100.00
75794;BME280;64418;47.536;19.074;2022-11-06T05:58:36;100522.13;;;8.75;100.00
75794;BME280;64418;47.536;19.074;2022-11-06T06:01:02;100523.38;;;8.72;100.00
75794;BME280;64418;47.536;19.074;2022-11-06T06:03:28;100529.56;;;8.73;100.00
75794;BME280;64418;47.536;19.074;2022-11-06T06:05:53;100530.81;;;8.70;100.00
75794;BME280;64418;47.536;19.074;2022-11-06T06:08:19;100527.47;;;8.68;100.00
75794;BME280;64418;47.536;19.074;2022-11-06T06:10:46;100532.03;;;8.67;100.00
75794;BME280;64418;47.536;19.074;2022-11-06T06:13:14;100539.13;;;8.68;100.00
75794;BME280;64418;47.536;19.074;2022-11-06T06:15:40;100535.75;;;8.66;100.00
75794;BME280;64418;47.536;19.074;2022-11-06T06:18:07;100536.13;;;8.63;100.00
75794;BME280;64418;47.536;19.074;2022-11-06T06:20:34;100540.53;;;8.64;100.00
75794;BME280;64418;47.536;19.074;2022-11-06T06:23:01;100549.25;;;8.66;100.00
75794;BME280;64418;47.536;19.074;2022-11-06T06:25:28;100560.72;;;8.68;100.00
75794;BME280;64418;47.536;19.074;2022-11-06T06:27:54;100560.72;;;8.68;100.00
75794;BME280;64418;47.536;19.074;2022-11-06T06:30:22;100559.88;;;8.68;100.00
75794;BME280;64418;47.536;19.074;2022-11-06T06:32:48;100567.13;;;8.67;100.00
75794;BME280;64418;47.536;19.074;2022-11-06T06:35:15;100566.13;;;8.68;100.00
75794;BME280;64418;47.536;19.074;2022-11-06T06:37:40;100570.69;;;8.68;100.00
75794;BME280;64418;47.536;19.074;2022-11-06T06:40:07;100561.53;;;8.69;100.00
75794;BME280;64418;47.536;19.074;2022-11-06T06:42:33;100571.53;;;8.68;100.00
75794;BME280;64418;47.536;19.074;2022-11-06T06:44:59;100573.00;;;8.71;100.00
75794;BME280;64418;47.536;19.074;2022-11-06T06:47:26;100578.41;;;8.71;100.00
75794;BME280;64418;47.536;19.074;2022-11-06T06:49:52;100579.87;;;8.74;100.00
75794;BME280;64418;47.536;19.074;2022-11-06T06:52:17;100582.56;;;8.74;100.00
75794;BME280;64418;47.536;19.074;2022-11-06T06:54:43;100585.28;;;8.74;100.00
75794;BME280;64418;47.536;19.074;2022-11-06T06:57:09;100590.69;;;8.74;100.00
75794;BME280;64418;47.536;19.074;2022-11-06T06:59:35;100596.66;;;8.69;100.00
75794;BME280;64418;47.536;19.074;2022-11-06T07:02:01;100593.13;;;8.68;100.00
75794;BME280;64418;47.536;19.074;2022-11-06T07:04:29;100598.31;;;8.70;100.00
75794;BME280;64418;47.536;19.074;2022-11-06T07:06:55;100601.88;;;8.70;100.00
75794;BME280;64418;47.536;19.074;2022-11-06T07:09:21;100596.47;;;8.70;100.00
75794;BME280;64418;47.536;19.074;2022-11-06T07:11:46;100598.16;;;8.72;100.00
75794;BME280;64418;47.536;19.074;2022-11-06T07:14:12;100603.56;;;8.72;100.00
75794;BME280;64418;47.536;19.074;2022-11-06T07:16:38;100600.84;;;8.72;100.00
75794;BME280;64418;47.536;19.074;2022-11-06T07:19:04;100599.00;;;8.72;100.00
75794;BME280;64418;47.536;19.074;2022-11-06T07:21:31;100596.09;;;8.74;100.00
75794;BME280;64418;47.536;19.074;2022-11-06T07:23:57;100601.47;;;8.74;100.00
75794;BME280;64418;47.536;19.074;2022-11-06T07:26:22;100603.16;;;8.75;100.00
75794;BME280;64418;47.536;19.074;2022-11-06T07:28:48;100605.88;;;8.75;100.00
75794;BME280;64418;47.536;19.074;2022-11-06T07:31:14;100605.19;;;8.73;100.00
75794;BME280;64418;47.536;19.074;2022-11-06T07:33:40;100612.28;;;8.74;100.00
75794;BME280;64418;47.536;19.074;2022-11-06T07:36:08;100608.56;;;8.75;100.00
75794;BME280;64418;47.536;19.074;2022-11-06T07:38:37;100615.38;;;8.70;100.00
75794;BME280;64418;47.536;19.074;2022-11-06T07:41:04;100610.16;;;8.69;100.00
75794;BME280;64418;47.536;19.074;2022-11-06T07:43:30;100621.41;;;8.73;100.00
75794;BME280;64418;47.536;19.074;2022-11-06T07:45:57;100620.78;;;8.70;100.00
75794;BME280;64418;47.536;19.074;2022-11-06T07:48:24;100616.37;;;8.69;100.00
75794;BME280;64418;47.536;19.074;2022-11-06T07:50:50;100623.09;;;8.74;100.00
75794;BME280;64418;47.536;19.074;2022-11-06T07:53:15;100620.28;;;8.82;100.00
75794;BME280;64418;47.536;19.074;2022-11-06T07:55:48;100624.00;;;8.81;100.00
75794;BME280;64418;47.536;19.074;2022-11-06T07:58:14;100622.03;;;8.89;100.00
75794;BME280;64418;47.536;19.074;2022-11-06T08:00:40;100623.81;;;8.97;100.00
75794;BME280;64418;47.536;19.074;2022-11-06T08:03:06;100627.34;;;8.97;100.00
75794;BME280;64418;47.536;19.074;2022-11-06T08:05:31;100624.81;;;8.96;100.00
75794;BME280;64418;47.536;19.074;2022-11-06T08:07:57;100621.38;;;9.02;100.00
75794;BME280;64418;47.536;19.074;2022-11-06T08:10:23;100626.78;;;9.02;100.00
75794;BME280;64418;47.536;19.074;2022-11-06T08:12:50;100623.53;;;8.92;100.00
75794;BME280;64418;47.536;19.074;2022-11-06T08:15:16;100628.84;;;8.85;100.00
75794;BME280;64418;47.536;19.074;2022-11-06T08:17:41;100625.31;;;8.85;100.00
75794;BME280;64418;47.536;19.074;2022-11-06T08:20:09;100631.09;;;8.82;100.00
75794;BME280;64418;47.536;19.074;2022-11-06T08:22:34;100627.56;;;8.81;100.00
75794;BME280;64418;47.536;19.074;2022-11-06T08:25:00;100633.16;;;8.80;100.00
75794;BME280;64418;47.536;19.074;2022-11-06T08:27:27;100634.81;;;8.81;100.00
75794;BME280;64418;47.536;19.074;2022-11-06T08:29:54;100635.19;;;8.78;100.00
75794;BME280;64418;47.536;19.074;2022-11-06T08:32:20;100628.09;;;8.77;100.00
75794;BME280;64418;47.536;19.074;2022-11-06T08:34:48;100636.22;;;8.77;100.00
75794;BME280;64418;47.536;19.074;2022-11-06T08:37:14;100629.78;;;8.78;100.00
75794;BME280;64418;47.536;19.074;2022-11-06T08:39:39;100630.63;;;8.78;100.00
75794;BME280;64418;47.536;19.074;2022-11-06T08:42:05;100640.22;;;8.81;100.00
75794;BME280;64418;47.536;19.074;2022-11-06T08:44:31;100637.72;;;8.79;100.00
75794;BME280;64418;47.536;19.074;2022-11-06T08:46:58;100631.09;;;8.82;100.00
75794;BME280;64418;47.536;19.074;2022-11-06T08:49:24;100630.06;;;8.83;100.00
75794;BME280;64418;47.536;19.074;2022-11-06T08:51:49;100631.16;;;8.88;100.00
75794;BME280;64418;47.536;19.074;2022-11-06T08:54:15;100636.31;;;9.19;100.00
75794;BME280;64418;47.536;19.074;2022-11-06T08:56:41;100635.19;;;9.28;100.00
75794;BME280;64418;47.536;19.074;2022-11-06T08:59:07;100637.88;;;9.28;100.00
75794;BME280;64418;47.536;19.074;2022-11-06T09:01:33;100634.66;;;9.39;100.00
75794;BME280;64418;47.536;19.074;2022-11-06T09:04:00;100644.69;;;9.45;100.00
75794;BME280;64418;47.536;19.074;2022-11-06T09:06:25;100643.81;;;9.38;100.00
75794;BME280;64418;47.536;19.074;2022-11-06T09:08:51;100637.09;;;9.34;100.00
75794;BME280;64418;47.536;19.074;2022-11-06T09:11:17;100637.37;;;9.39;100.00
75794;BME280;64418;47.536;19.074;2022-11-06T09:13:42;100626.34;;;9.41;100.00
75794;BME280;64418;47.536;19.074;2022-11-06T09:16:09;100632.97;;;9.59;100.00
75794;BME280;64418;47.536;19.074;2022-11-06T09:18:34;100628.09;;;9.70;100.00
75794;BME280;64418;47.536;19.074;2022-11-06T09:21:02;100625.50;;;9.83;100.00
75794;BME280;64418;47.536;19.074;2022-11-06T09:23:27;100630.72;;;9.84;100.00
75794;BME280;64418;47.536;19.074;2022-11-06T09:25:53;100624.72;;;9.89;100.00
75794;BME280;64418;47.536;19.074;2022-11-06T09:28:21;100623.75;;;9.75;100.00
75794;BME280;64418;47.536;19.074;2022-11-06T09:30:47;100621.59;;;9.64;100.00
75794;BME280;64418;47.536;19.074;2022-11-06T09:33:13;100626.53;;;9.60;100.00
75794;BME280;64418;47.536;19.074;2022-11-06T09:35:40;100628.22;;;9.61;100.00
75794;BME280;64418;47.536;19.074;2022-11-06T09:38:10;100632.78;;;9.61;100.00
75794;BME280;64418;47.536;19.074;2022-11-06T09:40:38;100629.50;;;9.65;100.00
75794;BME280;64418;47.536;19.074;2022-11-06T09:43:20;100629.91;;;9.62;100.00
75794;BME280;64418;47.536;19.074;2022-11-06T09:45:48;100624.09;;;9.65;100.00
75794;BME280;64418;47.536;19.074;2022-11-06T09:48:19;100621.00;;;9.68;100.00
75794;BME280;64418;47.536;19.074;2022-11-06T09:50:49;100624.34;;;9.71;100.00
75794;BME280;64418;47.536;19.074;2022-11-06T09:53:22;100628.09;;;9.70;100.00
75794;BME280;64418;47.536;19.074;2022-11-06T09:55:49;100629.56;;;9.72;100.00
75794;BME280;64418;47.536;19.074;2022-11-06T09:58:19;100622.91;;;9.75;100.00
75794;BME280;64418;47.536;19.074;2022-11-06T10:00:48;100623.19;;;9.80;100.00
75794;BME280;64418;47.536;19.074;2022-11-06T10:03:19;100621.75;;;9.84;100.00
75794;BME280;64418;47.536;19.074;2022-11-06T10:05:51;100619.31;;;9.89;100.00
75794;BME280;64418;47.536;19.074;2022-11-06T10:08:20;100616.84;;;9.94;100.00
75794;BME280;64418;47.536;19.074;2022-11-06T10:10:57;100615.81;;;9.95;100.00
75794;BME280;64418;47.536;19.074;2022-11-06T10:13:51;100613.37;;;10.00;100.00
75794;BME280;64418;47.536;19.074;2022-11-06T10:16:26;100611.09;;;10.03;100.00
75794;BME280;64418;47.536;19.074;2022-11-06T10:19:03;100612.16;;;10.09;100.00
75794;BME280;64418;47.536;19.074;2022-11-06T10:21:42;100609.56;;;10.16;100.00
75794;BME280;64418;47.536;19.074;2022-11-06T10:24:20;100604.94;;;10.16;100.00
75794;BME280;64418;47.536;19.074;2022-11-06T10:26:51;100607.66;;;10.16;100.00
75794;BME280;64418;47.536;19.074;2022-11-06T10:29:38;100611.84;;;10.19;100.00
75794;BME280;64418;47.536;19.074;2022-11-06T10:32:21;100608.31;;;10.18;100.00
75794;BME280;64418;47.536;19.074;2022-11-06T10:34:56;100611.62;;;10.20;100.00
75794;BME280;64418;47.536;19.074;2022-11-06T10:37:26;100611.06;;;10.25;100.00
75794;BME280;64418;47.536;19.074;2022-11-06T10:39:56;100610.44;;;10.23;100.00
75794;BME280;64418;47.536;19.074;2022-11-06T10:42:25;100605.00;;;10.23;100.00
75794;BME280;64418;47.536;19.074;2022-11-06T10:45:01;100604.19;;;10.22;100.00
75794;BME280;64418;47.536;19.074;2022-11-06T10:47:31;100605.84;;;10.23;100.00
75794;BME280;64418;47.536;19.074;2022-11-06T10:50:03;100601.25;;;10.24;100.00
75794;BME280;64418;47.536;19.074;2022-11-06T10:52:47;100593.34;;;10.22;100.00
75794;BME280;64418;47.536;19.074;2022-11-06T10:55:43;100595.47;;;10.27;100.00
75794;BME280;64418;47.536;19.074;2022-11-06T10:58:16;100584.22;;;10.30;100.00
75794;BME280;64418;47.536;19.074;2022-11-06T11:00:42;100588.81;;;10.29;100.00
75794;BME280;64418;47.536;19.074;2022-11-06T11:03:17;100586.09;;;10.29;100.00
75794;BME280;64418;47.536;19.074;2022-11-06T11:05:45;100582.09;;;10.25;100.00
75794;BME280;64418;47.536;19.074;2022-11-06T11:08:35;100582.53;;;10.29;100.00
75794;BME280;64418;47.536;19.074;2022-11-06T11:11:04;100579.22;;;10.27;100.00
75794;BME280;64418;47.536;19.074;2022-11-06T11:13:30;100581.72;;;10.28;100.00
75794;BME280;64418;47.536;19.074;2022-11-06T11:15:56;100581.31;;;10.31;100.00
75794;BME280;64418;47.536;19.074;2022-11-06T11:18:24;100571.53;;;10.30;100.00
75794;BME280;64418;47.536;19.074;2022-11-06T11:21:04;100575.06;;;10.31;100.00
75794;BME280;64418;47.536;19.074;2022-11-06T11:23:30;100567.56;;;10.33;100.00
75794;BME280;64418;47.536;19.074;2022-11-06T11:25:58;100574.25;;;10.37;100.00
75794;BME280;64418;47.536;19.074;2022-11-06T11:28:39;100572.00;;;10.40;100.00
75794;BME280;64418;47.536;19.074;2022-11-06T11:31:07;100579.72;;;10.43;100.00
75794;BME280;64418;47.536;19.074;2022-11-06T11:33:34;100573.25;;;10.38;100.00
75794;BME280;64418;47.536;19.074;2022-11-06T11:36:01;100575.13;;;10.44;100.00
75794;BME280;64418;47.536;19.074;2022-11-06T11:38:28;100575.31;;;10.42;100.00
75794;BME280;64418;47.536;19.074;2022-11-06T11:41:04;100570.97;;;10.41;100.00
75794;BME280;64418;47.536;19.074;2022-11-06T11:43:31;100565.53;;;10.41;100.00
75794;BME280;64418;47.536;19.074;2022-11-06T11:46:26;100569.28;;;10.40;100.00
75794;BME280;64418;47.536;19.074;2022-11-06T11:48:54;100570.56;;;10.44;100.00
75794;BME280;64418;47.536;19.074;2022-11-06T11:51:39;100560.97;;;10.42;100.00
75794;BME280;64418;47.536;19.074;2022-11-06T11:54:17;100553.62;;;10.36;100.00
75794;BME280;64418;47.536;19.074;2022-11-06T11:56:46;100558.25;;;10.42;100.00
75794;BME280;64418;47.536;19.074;2022-11-06T11:59:16;100553.88;;;10.41;100.00
75794;BME280;64418;47.536;19.074;2022-11-06T12:01:45;100556.34;;;10.42;100.00
75794;BME280;64418;47.536;19.074;2022-11-06T12:04:26;100551.34;;;10.39;100.00
75794;BME280;64418;47.536;19.074;2022-11-06T12:07:01;100555.56;;;10.48;100.00
75794;BME280;64418;47.536;19.074;2022-11-06T12:09:30;100553.91;;;10.54;100.00
75794;BME280;64418;47.536;19.074;2022-11-06T12:11:58;100559.56;;;10.52;100.00
75794;BME280;64418;47.536;19.074;2022-11-06T12:14:28;100558.13;;;10.56;100.00
75794;BME280;64418;47.536;19.074;2022-11-06T12:17:03;100554.59;;;10.62;100.00
75794;BME280;64418;47.536;19.074;2022-11-06T12:19:32;100560.66;;;10.65;100.00
75794;BME280;64418;47.536;19.074;2022-11-06T12:22:04;100565.25;;;10.71;100.00
75794;BME280;64418;47.536;19.074;2022-11-06T12:24:37;100564.84;;;10.74;100.00
75794;BME280;64418;47.536;19.074;2022-11-06T12:27:09;100555.06;;;10.79;100.00
75794;BME280;64418;47.536;19.074;2022-11-06T12:29:40;100560.28;;;10.81;100.00
75794;BME280;64418;47.536;19.074;2022-11-06T12:32:17;100565.69;;;10.81;100.00
75794;BME280;64418;47.536;19.074;2022-11-06T12:34:49;100567.38;;;10.82;100.00
75794;BME280;64418;47.536;19.074;2022-11-06T12:37:21;100561.53;;;10.85;100.00
75794;BME280;64418;47.536;19.074;2022-11-06T12:39:53;100563.22;;;10.86;100.00
75794;BME280;64418;47.536;19.074;2022-11-06T12:42:21;100564.06;;;10.86;100.00
75794;BME280;64418;47.536;19.074;2022-11-06T12:44:50;100563.09;;;11.14;100.00
75794;BME280;64418;47.536;19.074;2022-11-06T12:47:26;100566.06;;;11.65;100.00